createdAt,value
2023-05-25T00:02:17.955Z,11.60
2023-05-25T00:04:48.408Z,7.63
2023-05-25T00:07:16.229Z,8.95
2023-05-25T00:09:46.627Z,9.10
2023-05-25T00:12:14.258Z,7.32
2023-05-25T00:14:40.899Z,15.68
2023-05-25T00:17:10.557Z,9.57
2023-05-25T00:19:38.120Z,7.68
2023-05-25T00:22:04.852Z,8.52
2023-05-25T00:24:31.540Z,8.10
2023-05-25T00:26:58.504Z,12.70
2023-05-25T00:29:26.010Z,9.90
2023-05-25T00:31:53.755Z,8.18
2023-05-25T00:34:20.800Z,11.15
2023-05-25T00:36:48.271Z,13.10
2023-05-25T00:39:18.789Z,12.80
2023-05-25T00:41:46.221Z,8.95
2023-05-25T00:44:16.625Z,10.23
2023-05-25T00:46:51.930Z,11.23
2023-05-25T00:49:20.110Z,10.60
2023-05-25T00:51:48.023Z,10.55
2023-05-25T00:54:19.473Z,11.05
2023-05-25T00:56:57.049Z,9.30
2023-05-25T00:59:35.683Z,10.50
2023-05-25T01:02:08.790Z,11.13
2023-05-25T01:04:38.545Z,11.88
2023-05-25T01:07:06.939Z,6.88
2023-05-25T01:09:35.002Z,12.18
2023-05-25T01:12:02.704Z,10.55
2023-05-25T01:14:29.861Z,7.72
2023-05-25T01:16:57.147Z,7.95
2023-05-25T01:19:23.621Z,10.98
2023-05-25T01:22:08.142Z,12.15
2023-05-25T01:24:42.940Z,10.27
2023-05-25T01:27:15.366Z,14.50
2023-05-25T01:29:44.371Z,17.05
2023-05-25T01:32:11.484Z,11.88
2023-05-25T01:34:43.432Z,17.35
2023-05-25T01:37:13.360Z,16.35
2023-05-25T01:39:41.196Z,13.73
2023-05-25T01:42:07.997Z,18.00
2023-05-25T01:44:35.352Z,17.88
2023-05-25T01:47:05.862Z,13.73
2023-05-25T01:49:58.353Z,12.65
2023-05-25T01:52:32.361Z,17.30
2023-05-25T01:55:04.586Z,12.02
2023-05-25T01:57:36.163Z,15.55
2023-05-25T02:00:04.633Z,11.85
2023-05-25T02:02:33.061Z,15.35
2023-05-25T02:04:59.777Z,13.00
2023-05-25T02:07:26.244Z,17.45
2023-05-25T02:09:52.751Z,15.48
2023-05-25T02:12:19.314Z,12.05
2023-05-25T02:14:48.412Z,17.40
2023-05-25T02:17:17.811Z,14.35
2023-05-25T02:19:45.510Z,14.32
2023-05-25T02:22:12.189Z,12.40
2023-05-25T02:24:38.641Z,12.00
2023-05-25T02:27:06.676Z,14.65
2023-05-25T02:29:33.235Z,14.77
2023-05-25T02:31:59.662Z,16.27
2023-05-25T02:34:26.158Z,14.48
2023-05-25T02:36:52.625Z,14.90
2023-05-25T02:39:19.095Z,13.68
2023-05-25T02:41:45.599Z,13.38
2023-05-25T02:44:12.227Z,13.50
2023-05-25T02:46:38.763Z,14.73
2023-05-25T02:49:05.504Z,19.55
2023-05-25T02:51:32.423Z,16.52
2023-05-25T02:53:59.703Z,16.08
2023-05-25T02:56:27.453Z,17.05
2023-05-25T02:58:53.990Z,16.80
2023-05-25T03:01:20.741Z,16.05
2023-05-25T03:03:52.098Z,16.83
2023-05-25T03:06:18.788Z,16.73
2023-05-25T03:08:45.371Z,15.90
2023-05-25T03:11:11.798Z,16.20
2023-05-25T03:13:38.384Z,15.70
2023-05-25T03:16:05.058Z,17.92
2023-05-25T03:18:31.626Z,14.73
2023-05-25T03:20:58.133Z,17.60
2023-05-25T03:23:24.600Z,19.75
2023-05-25T03:25:51.485Z,23.55
2023-05-25T03:28:18.098Z,17.85
2023-05-25T03:30:44.590Z,26.58
2023-05-25T03:33:13.809Z,17.30
2023-05-25T03:35:40.663Z,16.13
2023-05-25T03:38:07.329Z,15.35
2023-05-25T03:40:33.840Z,21.73
2023-05-25T03:43:00.360Z,21.27
2023-05-25T03:45:26.831Z,16.63
2023-05-25T03:47:53.468Z,17.48
2023-05-25T03:50:20.466Z,20.15
2023-05-25T03:52:46.995Z,16.75
2023-05-25T03:55:15.190Z,17.58
2023-05-25T03:57:42.171Z,22.88
2023-05-25T04:00:12.146Z,21.05
2023-05-25T04:02:38.722Z,15.15
2023-05-25T04:05:05.694Z,25.73
2023-05-25T04:07:32.207Z,24.10
2023-05-25T04:09:59.714Z,26.60
2023-05-25T04:12:27.513Z,22.67
2023-05-25T04:14:54.115Z,27.35
2023-05-25T04:17:24.877Z,19.45
2023-05-25T04:19:52.424Z,21.42
2023-05-25T04:22:19.176Z,21.63
2023-05-25T04:24:46.300Z,22.67
2023-05-25T04:27:14.398Z,22.17
2023-05-25T04:29:43.908Z,25.98
2023-05-25T04:32:10.459Z,27.23
2023-05-25T04:34:37.692Z,22.75
2023-05-25T04:37:05.676Z,20.73
2023-05-25T04:39:32.753Z,21.90
2023-05-25T04:41:59.253Z,23.10
2023-05-25T04:44:25.788Z,24.88
2023-05-25T04:46:53.636Z,29.50
2023-05-25T04:49:21.427Z,21.52
2023-05-25T04:51:48.330Z,23.52
2023-05-25T04:54:14.829Z,21.63
2023-05-25T04:56:41.324Z,31.70
2023-05-25T04:59:07.822Z,28.20
2023-05-25T05:01:40.442Z,25.35
2023-05-25T05:04:08.070Z,26.10
2023-05-25T05:06:34.716Z,26.33
2023-05-25T05:09:01.506Z,35.08
2023-05-25T05:11:28.884Z,28.13
2023-05-25T05:13:56.424Z,27.88
2023-05-25T05:16:23.107Z,21.88
2023-05-25T05:18:49.720Z,30.73
2023-05-25T05:21:16.269Z,31.55
2023-05-25T05:23:43.620Z,28.33
2023-05-25T05:26:11.530Z,34.25
2023-05-25T05:28:38.177Z,32.08
2023-05-25T05:31:04.723Z,26.45
2023-05-25T05:33:31.389Z,23.40
2023-05-25T05:35:58.008Z,26.08
2023-05-25T05:38:24.514Z,25.52
2023-05-25T05:40:51.468Z,31.08
2023-05-25T05:43:17.929Z,31.42
2023-05-25T05:45:44.501Z,24.58
2023-05-25T05:48:11.461Z,30.77
2023-05-25T05:50:40.976Z,27.52
2023-05-25T05:53:09.669Z,22.30
2023-05-25T05:55:36.212Z,21.60
2023-05-25T05:58:02.658Z,21.10
2023-05-25T06:00:29.192Z,21.25
2023-05-25T06:02:56.069Z,19.55
2023-05-25T06:05:23.194Z,15.68
2023-05-25T06:07:49.736Z,15.60
2023-05-25T06:10:16.253Z,16.88
2023-05-25T06:12:42.765Z,19.88
2023-05-25T06:15:09.662Z,21.55
2023-05-25T06:17:37.031Z,16.75
2023-05-25T06:20:03.772Z,19.60
2023-05-25T06:22:30.270Z,18.77
2023-05-25T06:24:56.817Z,21.40
2023-05-25T06:27:23.443Z,18.05
2023-05-25T06:29:49.954Z,16.95
2023-05-25T06:32:16.673Z,19.95
2023-05-25T06:34:43.278Z,15.68
2023-05-25T06:37:09.868Z,17.88
2023-05-25T06:39:36.417Z,17.38
2023-05-25T06:42:02.897Z,17.58
2023-05-25T06:44:29.830Z,20.40
2023-05-25T06:46:56.371Z,16.60
2023-05-25T06:49:22.861Z,18.88
2023-05-25T06:51:51.233Z,18.05
2023-05-25T06:54:19.549Z,18.02
2023-05-25T06:56:46.425Z,20.90
2023-05-25T06:59:12.934Z,17.63
2023-05-25T07:01:39.483Z,19.13
2023-05-25T07:04:05.971Z,20.80
2023-05-25T07:06:33.062Z,19.40
2023-05-25T07:08:59.558Z,23.00
2023-05-25T07:11:26.572Z,17.58
2023-05-25T07:13:53.070Z,16.38
2023-05-25T07:16:19.658Z,18.77
2023-05-25T07:18:46.749Z,17.90
2023-05-25T07:21:13.219Z,18.48
2023-05-25T07:23:42.229Z,20.30
2023-05-25T07:26:09.125Z,17.38
2023-05-25T07:28:35.584Z,16.98
2023-05-25T07:31:02.147Z,16.42
2023-05-25T07:33:28.601Z,14.98
2023-05-25T07:35:55.155Z,15.10
2023-05-25T07:38:21.670Z,18.75
2023-05-25T07:40:49.134Z,16.45
2023-05-25T07:43:15.679Z,16.67
2023-05-25T07:45:42.258Z,15.80
2023-05-25T07:48:09.528Z,17.27
2023-05-25T07:50:36.142Z,17.75
2023-05-25T07:53:02.673Z,17.05
2023-05-25T07:55:29.224Z,18.85
2023-05-25T07:57:56.181Z,18.45
2023-05-25T08:00:22.788Z,18.73
2023-05-25T08:02:49.373Z,17.90
2023-05-25T08:05:16.279Z,17.88
2023-05-25T08:07:43.081Z,22.52
2023-05-25T08:10:09.916Z,20.65
2023-05-25T08:12:47.859Z,16.00
2023-05-25T08:15:15.255Z,15.77
2023-05-25T08:17:42.235Z,14.32
2023-05-25T08:20:10.153Z,19.70
2023-05-25T08:22:36.739Z,14.93
2023-05-25T08:25:06.880Z,16.30
2023-05-25T08:27:35.405Z,14.55
2023-05-25T08:30:02.701Z,17.55
2023-05-25T08:32:29.174Z,16.00
2023-05-25T08:34:56.054Z,15.93
2023-05-25T08:37:23.545Z,15.40
2023-05-25T08:39:50.443Z,15.35
2023-05-25T08:42:16.906Z,15.52
2023-05-25T08:44:43.539Z,14.68
2023-05-25T08:47:12.232Z,14.93
2023-05-25T08:49:41.127Z,22.10
2023-05-25T08:52:13.442Z,16.10
2023-05-25T08:54:43.973Z,16.73
2023-05-25T08:57:15.207Z,17.88
2023-05-25T08:59:49.118Z,17.17
2023-05-25T09:02:53.308Z,18.15
2023-05-25T09:05:20.682Z,18.67
2023-05-25T09:07:47.955Z,18.80
2023-05-25T09:10:14.905Z,20.55
2023-05-25T09:12:42.513Z,19.83
2023-05-25T09:15:12.824Z,21.27
2023-05-25T09:17:41.108Z,20.02
2023-05-25T09:20:10.614Z,17.33
2023-05-25T09:22:37.187Z,22.77
2023-05-25T09:25:08.532Z,23.33
2023-05-25T09:27:39.355Z,20.10
2023-05-25T09:30:06.649Z,20.73
2023-05-25T09:32:33.427Z,21.15
2023-05-25T09:35:07.714Z,21.58
2023-05-25T09:37:35.176Z,21.50
2023-05-25T09:40:01.990Z,23.70
2023-05-25T09:42:28.483Z,20.40
2023-05-25T09:44:54.973Z,19.77
2023-05-25T09:47:21.685Z,19.83
2023-05-25T09:49:50.492Z,22.92
2023-05-25T09:52:17.079Z,18.27
2023-05-25T09:54:48.435Z,22.92
2023-05-25T09:57:16.316Z,22.00
2023-05-25T09:59:43.687Z,19.33
2023-05-25T10:02:10.190Z,24.58
2023-05-25T10:04:36.921Z,19.60
2023-05-25T10:07:06.956Z,23.00
2023-05-25T10:09:39.857Z,21.08
2023-05-25T10:12:07.658Z,23.67
2023-05-25T10:14:37.288Z,23.83
2023-05-25T10:17:08.899Z,20.80
2023-05-25T10:19:45.544Z,18.75
2023-05-25T10:22:22.097Z,22.98
2023-05-25T10:25:04.694Z,20.25
2023-05-25T10:27:40.679Z,17.25
2023-05-25T10:30:09.029Z,16.52
2023-05-25T10:32:37.963Z,22.25
2023-05-25T10:35:07.109Z,21.05
2023-05-25T10:37:34.641Z,17.30
2023-05-25T10:40:02.046Z,16.50
2023-05-25T10:42:29.757Z,19.02
2023-05-25T10:44:57.341Z,22.25
2023-05-25T10:47:24.557Z,17.92
2023-05-25T10:49:57.541Z,20.85
2023-05-25T10:52:31.908Z,17.27
2023-05-25T10:55:02.189Z,25.00
2023-05-25T10:57:29.016Z,19.20
2023-05-25T11:00:01.770Z,18.83
2023-05-25T11:02:28.802Z,23.55
2023-05-25T11:05:26.095Z,24.60
2023-05-25T11:07:57.748Z,21.70
2023-05-25T11:10:43.108Z,23.85
2023-05-25T11:13:31.144Z,21.50
2023-05-25T11:16:20.845Z,21.88
2023-05-25T11:18:58.932Z,22.88
2023-05-25T11:21:41.104Z,22.20
2023-05-25T11:24:15.572Z,20.00
2023-05-25T11:27:00.861Z,21.17
2023-05-25T11:29:31.506Z,23.95
2023-05-25T11:31:59.278Z,21.05
2023-05-25T11:34:26.055Z,26.02
2023-05-25T11:37:04.142Z,22.17
2023-05-25T11:39:31.742Z,22.13
2023-05-25T11:42:07.288Z,21.17
2023-05-25T11:44:36.719Z,20.85
2023-05-25T11:47:08.153Z,27.10
2023-05-25T11:49:46.148Z,14.13
2023-05-25T11:52:17.632Z,19.35
2023-05-25T11:54:44.725Z,19.45
2023-05-25T11:57:24.821Z,21.60
2023-05-25T11:59:53.455Z,18.23
2023-05-25T12:02:21.246Z,16.42
2023-05-25T12:04:55.786Z,18.88
2023-05-25T12:07:22.745Z,15.98
2023-05-25T12:09:49.308Z,17.95
2023-05-25T12:12:16.050Z,14.82
2023-05-25T12:14:49.665Z,22.33
2023-05-25T12:17:21.878Z,17.30
2023-05-25T12:19:48.895Z,16.30
2023-05-25T12:22:16.256Z,18.33
2023-05-25T12:24:42.775Z,22.23
2023-05-25T12:27:24.574Z,18.27
2023-05-25T12:29:53.012Z,20.25
2023-05-25T12:32:19.561Z,14.73
2023-05-25T12:34:46.060Z,16.33
2023-05-25T12:37:20.166Z,16.75
2023-05-25T12:39:47.236Z,16.55
2023-05-25T12:42:15.617Z,14.43
2023-05-25T12:44:43.326Z,19.50
2023-05-25T12:47:17.191Z,16.15
2023-05-25T12:49:45.220Z,18.33
2023-05-25T12:52:30.864Z,22.70
2023-05-25T12:54:57.544Z,15.23
2023-05-25T12:57:37.518Z,16.85
2023-05-25T13:00:04.858Z,16.58
2023-05-25T13:02:31.950Z,18.60
2023-05-25T13:04:58.517Z,16.15
2023-05-25T13:07:25.191Z,15.43
2023-05-25T13:09:51.678Z,18.05
2023-05-25T13:12:18.173Z,17.35
2023-05-25T13:14:44.673Z,16.40
2023-05-25T13:17:11.167Z,16.48
2023-05-25T13:19:37.628Z,17.23
2023-05-25T13:22:04.275Z,16.38
2023-05-25T13:24:30.738Z,16.17
2023-05-25T13:26:57.219Z,18.25
2023-05-25T13:29:25.548Z,15.93
2023-05-25T13:31:52.057Z,14.93
2023-05-25T13:34:18.555Z,13.70
2023-05-25T13:36:45.114Z,14.02
2023-05-25T13:39:13.512Z,17.35
2023-05-25T13:41:40.883Z,12.25
2023-05-25T13:44:07.416Z,17.95
2023-05-25T13:46:35.716Z,13.63
2023-05-25T13:49:03.459Z,14.60
2023-05-25T13:51:30.279Z,10.55
2023-05-25T13:53:56.712Z,14.70
2023-05-25T13:56:23.341Z,17.00
2023-05-25T13:58:49.920Z,13.90
2023-05-25T14:01:16.507Z,11.77
2023-05-25T14:03:43.184Z,14.77
2023-05-25T14:06:09.712Z,14.05
2023-05-25T14:08:36.222Z,9.55
2023-05-25T14:11:03.130Z,11.65
2023-05-25T14:13:29.938Z,9.43
2023-05-25T14:15:56.636Z,9.98
2023-05-25T14:18:23.223Z,13.38
2023-05-25T14:20:49.783Z,16.45
2023-05-25T14:23:18.394Z,13.40
2023-05-25T14:25:46.351Z,10.32
2023-05-25T14:28:13.124Z,9.10
2023-05-25T14:30:39.675Z,11.43
2023-05-25T14:33:06.185Z,10.60
2023-05-25T14:35:32.777Z,10.35
2023-05-25T14:37:59.197Z,10.88
2023-05-25T14:40:25.789Z,8.98
2023-05-25T14:42:55.310Z,8.40
2023-05-25T14:45:21.846Z,16.13
2023-05-25T14:47:48.388Z,10.00
2023-05-25T14:50:15.072Z,12.90
2023-05-25T14:52:41.992Z,10.77
2023-05-25T14:55:09.183Z,11.48
2023-05-25T14:57:36.546Z,9.82
2023-05-25T15:00:03.470Z,9.00
2023-05-25T15:02:30.114Z,11.40
2023-05-25T15:04:56.650Z,10.73
2023-05-25T15:07:23.113Z,9.55
2023-05-25T15:09:49.579Z,11.70
2023-05-25T15:12:16.132Z,11.57
2023-05-25T15:14:42.808Z,14.82
2023-05-25T15:17:09.761Z,15.65
2023-05-25T15:19:36.481Z,9.90
2023-05-25T15:22:03.545Z,12.88
2023-05-25T15:24:30.116Z,9.70
2023-05-25T15:26:56.644Z,8.93
2023-05-25T15:29:23.201Z,11.60
2023-05-25T15:31:52.684Z,9.07
2023-05-25T15:34:20.147Z,9.20
2023-05-25T15:36:46.620Z,8.95
2023-05-25T15:39:14.581Z,10.52
2023-05-25T15:41:41.921Z,12.15
2023-05-25T15:44:12.225Z,10.25
2023-05-25T15:46:40.193Z,7.60
2023-05-25T15:49:11.415Z,7.45
2023-05-25T15:51:41.584Z,9.65
2023-05-25T15:54:11.166Z,8.43
2023-05-25T15:56:40.109Z,13.30
2023-05-25T15:59:06.958Z,7.60
2023-05-25T16:01:36.877Z,12.88
2023-05-25T16:04:04.572Z,9.00
2023-05-25T16:06:32.014Z,10.10
2023-05-25T16:08:58.785Z,6.50
2023-05-25T16:11:27.969Z,8.90
2023-05-25T16:13:54.768Z,9.93
2023-05-25T16:16:21.579Z,9.98
2023-05-25T16:18:48.272Z,8.60
2023-05-25T16:21:14.918Z,9.95
2023-05-25T16:23:41.447Z,11.48
2023-05-25T16:26:09.987Z,6.47
2023-05-25T16:28:37.345Z,9.52
2023-05-25T16:31:07.297Z,9.30
2023-05-25T16:33:34.069Z,8.23
2023-05-25T16:36:00.843Z,7.05
2023-05-25T16:38:27.381Z,9.43
2023-05-25T16:40:53.887Z,8.85
2023-05-25T16:43:21.850Z,6.97
2023-05-25T16:45:48.577Z,7.53
2023-05-25T16:48:15.206Z,9.48
2023-05-25T16:50:41.669Z,7.25
2023-05-25T16:53:08.172Z,4.38
2023-05-25T16:55:34.687Z,9.07
2023-05-25T16:58:01.268Z,6.95
2023-05-25T17:00:27.766Z,11.52
2023-05-25T17:02:54.443Z,8.13
2023-05-25T17:05:20.996Z,7.32
2023-05-25T17:07:49.014Z,7.05
2023-05-25T17:10:15.655Z,8.10
2023-05-25T17:12:42.387Z,8.98
2023-05-25T17:15:11.096Z,9.35
2023-05-25T17:17:37.619Z,7.95
2023-05-25T17:20:04.420Z,10.90
2023-05-25T17:22:30.979Z,7.50
2023-05-25T17:24:57.953Z,13.77
2023-05-25T17:27:24.484Z,7.22
2023-05-25T17:29:50.953Z,11.75
2023-05-25T17:32:17.515Z,5.80
2023-05-25T17:34:44.004Z,6.88
2023-05-25T17:37:10.515Z,11.02
2023-05-25T17:39:37.038Z,7.82
2023-05-25T17:42:03.578Z,11.18
2023-05-25T17:44:30.071Z,8.27
2023-05-25T17:46:56.511Z,7.95
2023-05-25T17:49:23.131Z,19.70
2023-05-25T17:51:49.687Z,12.63
2023-05-25T17:54:18.575Z,15.18
2023-05-25T17:56:45.852Z,12.65
2023-05-25T17:59:12.419Z,14.02
2023-05-25T18:01:39.510Z,11.52
2023-05-25T18:04:06.408Z,12.95
2023-05-25T18:06:32.944Z,11.75
2023-05-25T18:08:59.664Z,13.75
2023-05-25T18:11:28.288Z,11.10
2023-05-25T18:13:54.891Z,13.77
2023-05-25T18:16:21.371Z,12.45
2023-05-25T18:18:48.029Z,13.85
2023-05-25T18:21:14.649Z,10.80
2023-05-25T18:23:41.115Z,12.75
2023-05-25T18:26:07.856Z,14.90
2023-05-25T18:28:34.395Z,15.50
2023-05-25T18:31:01.007Z,14.77
2023-05-25T18:33:27.585Z,14.48
2023-05-25T18:35:54.057Z,12.57
2023-05-25T18:38:20.580Z,17.10
2023-05-25T18:40:47.067Z,15.40
2023-05-25T18:43:13.552Z,12.40
2023-05-25T18:45:40.033Z,11.60
2023-05-25T18:48:10.280Z,13.45
2023-05-25T18:50:37.597Z,17.73
2023-05-25T18:53:09.711Z,15.38
2023-05-25T18:55:37.218Z,12.43
2023-05-25T18:58:04.059Z,15.60
2023-05-25T19:00:30.940Z,12.82
2023-05-25T19:02:57.638Z,16.30
2023-05-25T19:05:24.611Z,17.50
2023-05-25T19:07:58.909Z,14.60
2023-05-25T19:10:26.031Z,19.35
2023-05-25T19:12:52.621Z,15.57
2023-05-25T19:15:19.352Z,16.58
2023-05-25T19:17:46.703Z,12.95
2023-05-25T19:20:13.560Z,16.52
2023-05-25T19:22:40.354Z,18.98
2023-05-25T19:25:07.337Z,12.52
2023-05-25T19:27:33.821Z,13.15
2023-05-25T19:30:00.416Z,12.27
2023-05-25T19:32:26.931Z,21.02
2023-05-25T19:34:53.449Z,18.85
2023-05-25T19:37:19.905Z,13.05
2023-05-25T19:39:46.438Z,14.48
2023-05-25T19:42:12.872Z,18.25
2023-05-25T19:44:40.581Z,13.25
2023-05-25T19:47:07.518Z,17.52
2023-05-25T19:49:34.019Z,17.65
2023-05-25T19:52:00.453Z,20.83
2023-05-25T19:54:26.965Z,12.00
2023-05-25T19:56:53.781Z,10.05
2023-05-25T19:59:21.651Z,14.10
2023-05-25T20:01:48.522Z,26.73
2023-05-25T20:04:15.462Z,13.75
2023-05-25T20:06:41.995Z,10.63
2023-05-25T20:09:12.353Z,15.80
2023-05-25T20:11:38.845Z,20.50
2023-05-25T20:14:07.561Z,21.73
2023-05-25T20:16:34.357Z,19.98
2023-05-25T20:19:01.538Z,21.38
2023-05-25T20:21:28.850Z,23.55
2023-05-25T20:23:56.800Z,15.82
2023-05-25T20:26:23.226Z,15.65
2023-05-25T20:28:49.645Z,17.00
2023-05-25T20:31:16.167Z,16.20
2023-05-25T20:33:42.709Z,10.98
2023-05-25T20:36:09.125Z,15.43
2023-05-25T20:38:35.764Z,12.38
2023-05-25T20:41:02.363Z,17.10
2023-05-25T20:43:28.808Z,14.00
2023-05-25T20:45:55.758Z,17.92
2023-05-25T20:48:22.253Z,17.00
2023-05-25T20:50:48.725Z,17.65
2023-05-25T20:53:15.765Z,15.15
2023-05-25T20:55:42.302Z,19.33
2023-05-25T20:58:08.933Z,16.92
2023-05-25T21:00:35.652Z,18.10
2023-05-25T21:03:02.212Z,14.35
2023-05-25T21:05:28.863Z,14.32
2023-05-25T21:07:55.482Z,19.00
2023-05-25T21:10:22.167Z,18.23
2023-05-25T21:12:48.591Z,13.35
2023-05-25T21:15:15.151Z,10.98
2023-05-25T21:17:41.653Z,20.40
2023-05-25T21:20:08.501Z,16.70
2023-05-25T21:22:35.114Z,20.10
2023-05-25T21:25:01.596Z,21.88
2023-05-25T21:27:28.095Z,15.80
2023-05-25T21:29:54.930Z,13.55
2023-05-25T21:32:21.490Z,13.07
2023-05-25T21:34:48.035Z,17.40
2023-05-25T21:37:14.542Z,13.73
2023-05-25T21:39:41.120Z,10.15
2023-05-25T21:42:07.685Z,11.63
2023-05-25T21:44:34.160Z,15.07
2023-05-25T21:47:00.723Z,15.80
2023-05-25T21:49:27.175Z,14.00
2023-05-25T21:51:53.639Z,17.27
2023-05-25T21:54:20.241Z,18.08
2023-05-25T21:56:46.699Z,12.70
2023-05-25T21:59:13.171Z,17.17
2023-05-25T22:01:39.688Z,17.90
2023-05-25T22:04:06.385Z,17.35
2023-05-25T22:06:32.884Z,15.23
2023-05-25T22:08:59.588Z,19.38
2023-05-25T22:11:26.399Z,13.23
2023-05-25T22:13:52.952Z,14.63
2023-05-25T22:16:19.975Z,14.80
2023-05-25T22:18:46.450Z,21.95
2023-05-25T22:21:14.687Z,14.35
2023-05-25T22:23:41.333Z,13.60
2023-05-25T22:26:07.897Z,12.82
2023-05-25T22:28:34.382Z,14.68
2023-05-25T22:31:00.834Z,17.42
2023-05-25T22:33:27.319Z,12.95
2023-05-25T22:35:53.808Z,13.25
2023-05-25T22:38:20.387Z,14.60
2023-05-25T22:40:47.633Z,13.93
2023-05-25T22:43:14.760Z,13.07
2023-05-25T22:45:41.566Z,18.95
2023-05-25T22:48:08.860Z,11.05
2023-05-25T22:50:35.398Z,13.20
2023-05-25T22:53:01.831Z,15.38
2023-05-25T22:55:28.286Z,13.70
2023-05-25T22:57:54.754Z,16.65
2023-05-25T23:00:21.409Z,16.65
2023-05-25T23:02:47.920Z,12.90
2023-05-25T23:05:14.510Z,10.80
2023-05-25T23:07:41.369Z,14.40
2023-05-25T23:10:08.335Z,16.75
2023-05-25T23:12:34.817Z,15.45
2023-05-25T23:15:02.609Z,13.77
2023-05-25T23:17:29.131Z,16.13
2023-05-25T23:19:55.759Z,13.40
2023-05-25T23:22:22.228Z,12.98
2023-05-25T23:24:48.699Z,16.20
2023-05-25T23:27:15.165Z,14.27
2023-05-25T23:29:41.608Z,13.38
2023-05-25T23:32:08.144Z,18.55
2023-05-25T23:34:34.710Z,15.70
2023-05-25T23:37:01.385Z,13.43
2023-05-25T23:39:27.828Z,17.23
2023-05-25T23:41:54.301Z,17.90
2023-05-25T23:44:20.772Z,11.95
2023-05-25T23:46:47.240Z,13.50
2023-05-25T23:49:13.700Z,18.30
2023-05-25T23:51:40.134Z,14.05
2023-05-25T23:54:06.825Z,14.60
2023-05-25T23:56:33.260Z,13.98
2023-05-25T23:58:59.751Z,16.75
